Time;durP1;ratioP1;P1;durP2;ratioP2;P2;SDS_P1;SDS_P2;PMS_P1;PMS_P2;Temp;Humidity;BMP_temperature;BMP_pressure;BME280_temperature;BME280_humidity;BME280_pressure;Samples;Min_cycle;Max_cycle;Signal;HPM_P1;HPM_P2
2022/03/11 00:02:12;;;;;;;;;;;5.80;99.90;;;;;;4934153;28;20290;-74
2022/03/11 00:04:37;;;;;;;;;;;5.70;99.90;;;;;;4935693;28;19932;-74
2022/03/11 00:07:22;;;;;;;;;;;5.90;99.90;;;;;;4955926;28;20309;-73
2022/03/11 00:09:47;;;;;;;;;;;5.90;99.90;;;;;;4933299;28;20443;-73
2022/03/11 00:12:13;;;;;;;;;;;5.80;99.90;;;;;;4927589;28;20630;-74
2022/03/11 00:14:38;;;;;;;;;;;5.80;99.90;;;;;;4950567;28;20003;-74
2022/03/11 00:17:04;;;;;;;;;;;5.80;99.90;;;;;;4958584;28;19940;-74
2022/03/11 00:19:30;;;;;;;;;;;5.70;99.90;;;;;;4927872;28;19928;-74
2022/03/11 00:21:56;;;;;;;;;;;5.70;99.90;;;;;;4913178;28;19933;-74
2022/03/11 00:24:22;;;;;;;;;;;5.70;99.90;;;;;;4934365;28;19933;-75
2022/03/11 00:26:47;;;;;;;;;;;5.60;99.90;;;;;;4944681;28;20010;-75
2022/03/11 00:29:14;;;;;;;;;;;5.60;99.90;;;;;;4954810;28;19933;-75
2022/03/11 00:31:39;;;;;;;;;;;5.60;99.90;;;;;;4922987;28;19936;-74
2022/03/11 00:34:05;;;;;;;;;;;5.60;99.90;;;;;;4959714;28;20428;-75
2022/03/11 00:36:32;;;;;;;;;;;5.70;99.90;;;;;;4929964;28;19951;-75
2022/03/11 00:38:57;;;;;;;;;;;5.60;99.90;;;;;;4959937;28;20002;-74
2022/03/11 00:41:23;;;;;;;;;;;5.50;99.90;;;;;;4944428;28;19928;-75
2022/03/11 00:43:49;;;;;;;;;;;5.70;99.90;;;;;;4955480;28;20018;-75
2022/03/11 00:46:14;;;;;;;;;;;5.60;99.90;;;;;;4961006;28;19973;-75
2022/03/11 00:48:40;;;;;;;;;;;5.60;99.90;;;;;;4912276;28;19964;-75
2022/03/11 00:51:06;;;;;;;;;;;5.50;99.90;;;;;;4925331;28;19929;-74
2022/03/11 00:53:31;;;;;;;;;;;5.60;99.90;;;;;;4960662;28;19929;-75
2022/03/11 00:55:57;;;;;;;;;;;5.50;99.90;;;;;;4938704;28;20018;-75
2022/03/11 00:58:23;;;;;;;;;;;5.50;99.90;;;;;;4941686;28;19991;-75
2022/03/11 01:00:48;;;;;;;;;;;5.60;99.90;;;;;;4959945;28;20325;-75
2022/03/11 01:03:14;;;;;;;;;;;5.60;99.90;;;;;;4929351;28;20363;-75
2022/03/11 01:05:40;;;;;;;;;;;5.70;99.90;;;;;;4938293;28;19928;-75
2022/03/11 01:08:05;;;;;;;;;;;5.50;99.90;;;;;;4948407;28;19972;-75
2022/03/11 01:10:31;;;;;;;;;;;5.70;99.90;;;;;;4942541;28;20096;-74
2022/03/11 01:12:57;;;;;;;;;;;5.50;99.90;;;;;;4932151;28;19929;-75
2022/03/11 01:15:23;;;;;;;;;;;5.60;99.90;;;;;;4950139;28;19929;-75
2022/03/11 01:17:48;;;;;;;;;;;5.50;99.90;;;;;;4934080;28;20318;-75
2022/03/11 01:20:14;;;;;;;;;;;5.40;99.90;;;;;;4921484;28;19929;-75
2022/03/11 01:22:40;;;;;;;;;;;5.30;99.90;;;;;;4955849;28;19987;-74
2022/03/11 01:25:07;;;;;;;;;;;5.60;99.90;;;;;;4935077;28;20588;-75
2022/03/11 01:27:32;;;;;;;;;;;5.20;99.90;;;;;;4939579;28;20583;-74
2022/03/11 01:29:58;;;;;;;;;;;5.40;99.90;;;;;;4933620;28;20642;-75
2022/03/11 01:32:24;;;;;;;;;;;5.30;99.90;;;;;;4952041;28;20501;-75
2022/03/11 01:34:49;;;;;;;;;;;5.20;99.90;;;;;;4935411;28;19937;-75
2022/03/11 01:37:15;;;;;;;;;;;5.30;99.90;;;;;;4933310;28;19932;-75
2022/03/11 01:39:41;;;;;;;;;;;5.40;99.90;;;;;;4931908;28;19936;-75
2022/03/11 01:42:07;;;;;;;;;;;5.20;99.90;;;;;;4949203;28;20534;-75
2022/03/11 01:44:42;;;;;;;;;;;5.10;99.90;;;;;;4917259;28;19929;-75
2022/03/11 01:47:08;;;;;;;;;;;5.20;99.90;;;;;;4937398;28;19925;-75
2022/03/11 01:49:34;;;;;;;;;;;5.00;99.90;;;;;;4937941;28;19991;-74
2022/03/11 01:52:00;;;;;;;;;;;5.10;99.90;;;;;;4932590;28;20070;-75
2022/03/11 01:54:26;;;;;;;;;;;5.10;99.90;;;;;;4938894;28;20256;-75
2022/03/11 01:56:52;;;;;;;;;;;5.00;99.90;;;;;;4937386;28;20127;-75
2022/03/11 01:59:18;;;;;;;;;;;5.00;99.90;;;;;;4950136;28;20047;-75
2022/03/11 02:01:43;;;;;;;;;;;4.90;99.90;;;;;;4951060;28;20009;-74
2022/03/11 02:04:09;;;;;;;;;;;4.80;99.90;;;;;;4950593;28;19929;-74
2022/03/11 02:06:35;;;;;;;;;;;4.80;99.90;;;;;;4941806;28;20316;-74
2022/03/11 02:09:02;;;;;;;;;;;4.90;99.90;;;;;;4955545;28;19935;-75
2022/03/11 02:11:27;;;;;;;;;;;4.90;99.90;;;;;;4949624;28;20867;-75
2022/03/11 02:13:54;;;;;;;;;;;4.90;99.90;;;;;;4932375;28;19928;-75
2022/03/11 02:16:21;;;;;;;;;;;4.80;99.90;;;;;;4933673;28;20385;-75
2022/03/11 02:18:47;;;;;;;;;;;4.90;99.90;;;;;;4937932;28;19933;-75
2022/03/11 02:21:13;;;;;;;;;;;4.80;99.90;;;;;;4930576;28;19929;-74
2022/03/11 02:23:42;;;;;;;;;;;4.90;99.90;;;;;;4934379;28;20429;-75
2022/03/11 02:26:08;;;;;;;;;;;4.90;99.90;;;;;;4940594;28;19929;-74
2022/03/11 02:28:34;;;;;;;;;;;4.90;99.90;;;;;;4953499;28;20634;-75
2022/03/11 02:30:59;;;;;;;;;;;4.80;99.90;;;;;;4935975;28;20259;-75
2022/03/11 02:33:25;;;;;;;;;;;4.90;99.90;;;;;;4951075;28;19933;-75
2022/03/11 02:35:51;;;;;;;;;;;4.90;99.90;;;;;;4946658;28;19928;-75
2022/03/11 02:38:16;;;;;;;;;;;4.90;99.90;;;;;;4956600;28;19929;-75
2022/03/11 02:40:42;;;;;;;;;;;4.90;99.90;;;;;;4950555;28;20031;-75
2022/03/11 02:43:08;;;;;;;;;;;4.80;99.90;;;;;;4952302;28;20061;-74
2022/03/11 02:45:33;;;;;;;;;;;4.70;99.90;;;;;;4951285;28;20315;-74
2022/03/11 02:47:59;;;;;;;;;;;4.70;99.90;;;;;;4932676;28;19925;-75
2022/03/11 02:50:24;;;;;;;;;;;4.70;99.90;;;;;;4956298;28;19982;-75
2022/03/11 02:52:50;;;;;;;;;;;4.70;99.90;;;;;;4951814;28;20337;-75
2022/03/11 02:55:16;;;;;;;;;;;4.60;99.90;;;;;;4954216;28;19929;-74
2022/03/11 02:57:41;;;;;;;;;;;4.60;99.90;;;;;;4932861;28;19928;-75
2022/03/11 03:00:07;;;;;;;;;;;4.60;99.90;;;;;;4941356;28;20035;-75
2022/03/11 03:02:33;;;;;;;;;;;4.50;99.90;;;;;;4957679;28;20094;-74
2022/03/11 03:04:59;;;;;;;;;;;4.60;99.90;;;;;;4953517;28;20382;-74
2022/03/11 03:07:25;;;;;;;;;;;4.40;99.90;;;;;;4936607;28;19929;-75
2022/03/11 03:09:50;;;;;;;;;;;4.50;99.90;;;;;;4954142;28;19940;-75
2022/03/11 03:12:16;;;;;;;;;;;4.50;99.90;;;;;;4944633;28;19983;-75
2022/03/11 03:14:41;;;;;;;;;;;4.50;99.90;;;;;;4952585;28;20909;-75
2022/03/11 03:17:07;;;;;;;;;;;4.50;99.90;;;;;;4953761;28;19944;-75
2022/03/11 03:19:35;;;;;;;;;;;4.40;99.90;;;;;;4933386;28;19971;-75
2022/03/11 03:22:02;;;;;;;;;;;4.40;99.90;;;;;;4953646;28;19951;-75
2022/03/11 03:24:27;;;;;;;;;;;4.50;99.90;;;;;;4942170;28;19926;-75
2022/03/11 03:26:55;;;;;;;;;;;4.40;99.90;;;;;;4936969;28;19928;-75
2022/03/11 03:29:21;;;;;;;;;;;4.50;99.90;;;;;;4961112;28;19975;-75
2022/03/11 03:31:47;;;;;;;;;;;4.50;99.90;;;;;;4960712;28;19929;-75
2022/03/11 03:34:13;;;;;;;;;;;4.40;99.90;;;;;;4937220;28;19929;-75
2022/03/11 03:36:38;;;;;;;;;;;4.40;99.90;;;;;;4955872;28;19929;-75
2022/03/11 03:39:04;;;;;;;;;;;4.60;99.90;;;;;;4942244;28;20510;-75
2022/03/11 03:41:29;;;;;;;;;;;4.40;99.90;;;;;;4923549;28;20294;-75
2022/03/11 03:43:55;;;;;;;;;;;4.40;99.90;;;;;;4942766;28;20707;-76
2022/03/11 03:46:21;;;;;;;;;;;4.30;99.90;;;;;;4941859;28;19987;-75
2022/03/11 03:48:46;;;;;;;;;;;4.30;99.90;;;;;;4953291;28;19937;-75
2022/03/11 03:51:12;;;;;;;;;;;4.10;99.90;;;;;;4942322;28;19928;-75
2022/03/11 03:53:38;;;;;;;;;;;4.10;99.90;;;;;;4941509;28;19928;-75
2022/03/11 03:56:04;;;;;;;;;;;4.30;99.90;;;;;;4942078;28;19929;-75
2022/03/11 03:58:29;;;;;;;;;;;4.20;99.90;;;;;;4947190;28;19932;-75
2022/03/11 04:00:55;;;;;;;;;;;4.30;99.90;;;;;;4957030;28;19933;-75
2022/03/11 04:03:21;;;;;;;;;;;4.20;99.90;;;;;;4958815;28;19928;-75
2022/03/11 04:05:46;;;;;;;;;;;4.20;99.90;;;;;;4938180;28;20335;-75
2022/03/11 04:08:12;;;;;;;;;;;4.20;99.90;;;;;;4966483;28;19928;-75
2022/03/11 04:10:39;;;;;;;;;;;4.10;99.90;;;;;;4944352;28;20401;-75
2022/03/11 04:13:04;;;;;;;;;;;4.20;99.90;;;;;;4942694;28;20886;-75
2022/03/11 04:15:30;;;;;;;;;;;4.10;99.90;;;;;;4945945;28;20012;-75
2022/03/11 04:17:56;;;;;;;;;;;4.10;99.90;;;;;;4975622;28;20290;-75
2022/03/11 04:20:21;;;;;;;;;;;4.00;99.90;;;;;;4944804;28;19929;-75
2022/03/11 04:22:47;;;;;;;;;;;4.10;99.90;;;;;;4944744;28;20386;-75
2022/03/11 04:25:19;;;;;;;;;;;4.10;99.90;;;;;;4938913;28;19935;-75
2022/03/11 04:27:44;;;;;;;;;;;4.10;99.90;;;;;;4943421;28;20396;-75
2022/03/11 04:30:10;;;;;;;;;;;4.00;99.90;;;;;;4945990;28;19959;-75
2022/03/11 04:32:36;;;;;;;;;;;4.00;99.90;;;;;;4958422;28;20075;-75
2022/03/11 04:35:03;;;;;;;;;;;4.10;99.90;;;;;;4943758;28;20291;-75
2022/03/11 04:37:28;;;;;;;;;;;3.90;99.90;;;;;;4953256;28;20627;-75
2022/03/11 04:39:54;;;;;;;;;;;3.90;99.90;;;;;;4963053;28;20379;-75
2022/03/11 04:42:20;;;;;;;;;;;3.80;99.90;;;;;;4962194;28;20432;-74
2022/03/11 04:44:46;;;;;;;;;;;3.80;99.90;;;;;;4961280;28;19940;-74
2022/03/11 04:47:11;;;;;;;;;;;3.90;99.90;;;;;;4960900;28;20759;-75
2022/03/11 04:49:37;;;;;;;;;;;3.80;99.90;;;;;;4959502;28;20484;-75
2022/03/11 04:52:04;;;;;;;;;;;3.70;99.90;;;;;;4955927;28;20278;-75
2022/03/11 04:54:30;;;;;;;;;;;3.80;99.90;;;;;;4955274;28;19928;-75
2022/03/11 04:56:56;;;;;;;;;;;3.70;99.90;;;;;;4937508;28;19961;-74
2022/03/11 04:59:22;;;;;;;;;;;3.70;99.90;;;;;;4942329;28;19979;-75
2022/03/11 05:01:47;;;;;;;;;;;3.70;99.90;;;;;;4962676;28;20047;-75
2022/03/11 05:04:13;;;;;;;;;;;3.70;99.90;;;;;;4943005;28;20030;-75
2022/03/11 05:06:39;;;;;;;;;;;3.50;99.90;;;;;;4961492;28;19989;-75
2022/03/11 05:09:04;;;;;;;;;;;3.50;99.90;;;;;;4943122;28;20358;-75
2022/03/11 05:11:30;;;;;;;;;;;3.50;99.90;;;;;;4956273;28;20418;-75
2022/03/11 05:13:56;;;;;;;;;;;3.50;99.90;;;;;;4939265;28;19940;-75
2022/03/11 05:16:21;;;;;;;;;;;3.50;99.90;;;;;;4955617;28;19928;-75
2022/03/11 05:18:47;;;;;;;;;;;3.40;99.90;;;;;;4939675;28;20449;-75
2022/03/11 05:21:13;;;;;;;;;;;3.60;99.90;;;;;;4963694;28;20047;-75
2022/03/11 05:23:39;;;;;;;;;;;3.60;99.90;;;;;;4944640;28;19929;-75
2022/03/11 05:26:04;;;;;;;;;;;3.50;99.90;;;;;;4940818;28;20437;-75
2022/03/11 05:28:30;;;;;;;;;;;3.50;99.90;;;;;;4941939;28;20453;-75
2022/03/11 05:30:56;;;;;;;;;;;3.40;99.90;;;;;;4964560;28;20177;-75
2022/03/11 05:33:21;;;;;;;;;;;3.40;99.90;;;;;;4940712;28;20440;-75
2022/03/11 05:35:47;;;;;;;;;;;3.30;99.90;;;;;;4958726;28;19933;-74
2022/03/11 05:38:13;;;;;;;;;;;3.40;99.90;;;;;;4934572;28;19979;-75
2022/03/11 05:40:38;;;;;;;;;;;3.20;99.90;;;;;;4940081;28;19929;-75
2022/03/11 05:43:04;;;;;;;;;;;3.20;99.90;;;;;;4957714;28;20020;-75
2022/03/11 05:45:30;;;;;;;;;;;3.20;99.90;;;;;;4934699;28;20454;-75
2022/03/11 05:47:56;;;;;;;;;;;3.10;99.90;;;;;;4959445;28;19933;-75
2022/03/11 05:50:21;;;;;;;;;;;3.20;99.90;;;;;;4957578;28;19932;-75
2022/03/11 05:52:49;;;;;;;;;;;3.30;99.90;;;;;;4936056;28;19933;-75
2022/03/11 05:55:15;;;;;;;;;;;3.30;99.90;;;;;;4942731;28;19940;-75
2022/03/11 05:57:40;;;;;;;;;;;3.20;99.90;;;;;;4948265;28;20436;-75
2022/03/11 06:00:06;;;;;;;;;;;3.20;99.90;;;;;;4949027;28;19940;-75
2022/03/11 06:02:32;;;;;;;;;;;3.30;99.90;;;;;;4942858;28;19982;-74
2022/03/11 06:04:57;;;;;;;;;;;3.10;99.90;;;;;;4931995;28;20393;-75
2022/03/11 06:07:23;;;;;;;;;;;3.20;99.90;;;;;;4939607;28;19997;-75
2022/03/11 06:09:49;;;;;;;;;;;3.10;99.90;;;;;;4951909;28;19936;-75
2022/03/11 06:12:14;;;;;;;;;;;3.10;99.90;;;;;;4946356;28;19964;-75
2022/03/11 06:14:40;;;;;;;;;;;3.10;99.90;;;;;;4931135;28;20063;-74
2022/03/11 06:17:06;;;;;;;;;;;3.10;99.90;;;;;;4960073;28;19940;-75
2022/03/11 06:19:31;;;;;;;;;;;3.20;99.90;;;;;;4964268;28;19951;-75
2022/03/11 06:21:57;;;;;;;;;;;3.20;99.90;;;;;;4961493;28;19928;-75
2022/03/11 06:24:23;;;;;;;;;;;3.30;99.90;;;;;;4963964;28;19928;-74
2022/03/11 06:26:49;;;;;;;;;;;3.30;99.90;;;;;;4961828;28;19931;-76
2022/03/11 06:29:15;;;;;;;;;;;3.40;99.90;;;;;;4959152;28;19972;-74
2022/03/11 06:31:40;;;;;;;;;;;3.40;99.90;;;;;;4939696;28;20714;-75
2022/03/11 06:34:06;;;;;;;;;;;3.40;99.90;;;;;;4955708;28;19928;-75
2022/03/11 06:36:34;;;;;;;;;;;3.40;99.90;;;;;;4954975;28;20074;-74
2022/03/11 06:39:00;;;;;;;;;;;3.50;99.90;;;;;;4943163;28;19936;-74
2022/03/11 06:41:25;;;;;;;;;;;3.60;99.90;;;;;;4972824;28;19933;-75
2022/03/11 06:43:51;;;;;;;;;;;3.60;99.90;;;;;;4967937;28;20445;-76
2022/03/11 06:46:17;;;;;;;;;;;3.70;99.90;;;;;;4949801;28;19929;-75
2022/03/11 06:48:43;;;;;;;;;;;3.80;99.90;;;;;;4957623;28;20754;-75
2022/03/11 06:51:08;;;;;;;;;;;3.80;99.90;;;;;;4939018;28;19928;-75
2022/03/11 06:53:34;;;;;;;;;;;3.80;99.90;;;;;;4957063;28;20310;-75
2022/03/11 06:56:04;;;;;;;;;;;3.90;99.90;;;;;;4960474;28;20730;-75
2022/03/11 06:58:30;;;;;;;;;;;3.90;99.90;;;;;;4956626;28;19929;-75
2022/03/11 07:00:56;;;;;;;;;;;4.00;99.90;;;;;;4933934;28;19967;-75
2022/03/11 07:03:21;;;;;;;;;;;4.00;99.90;;;;;;4955620;28;20000;-74
2022/03/11 07:05:47;;;;;;;;;;;4.20;99.90;;;;;;4961270;28;19956;-75
2022/03/11 07:08:14;;;;;;;;;;;4.20;99.90;;;;;;4959492;28;19928;-76
2022/03/11 07:10:39;;;;;;;;;;;4.30;99.90;;;;;;4939359;28;20374;-75
2022/03/11 07:13:05;;;;;;;;;;;4.10;99.90;;;;;;4922824;28;19932;-75
2022/03/11 07:15:31;;;;;;;;;;;4.40;99.90;;;;;;4939927;28;19925;-74
2022/03/11 07:17:57;;;;;;;;;;;4.50;99.90;;;;;;4956998;28;19947;-75
2022/03/11 07:20:23;;;;;;;;;;;4.50;99.90;;;;;;4936090;28;19941;-75
2022/03/11 07:22:48;;;;;;;;;;;4.50;99.90;;;;;;4951110;28;20324;-75
2022/03/11 07:25:15;;;;;;;;;;;4.60;99.90;;;;;;4955630;28;19968;-75
2022/03/11 07:27:40;;;;;;;;;;;4.70;99.90;;;;;;4958448;28;20684;-75
2022/03/11 07:30:06;;;;;;;;;;;4.80;99.90;;;;;;4958851;28;19941;-75
2022/03/11 07:32:32;;;;;;;;;;;4.90;99.90;;;;;;4940017;28;19936;-75
2022/03/11 07:34:58;;;;;;;;;;;5.00;99.90;;;;;;4938392;28;20419;-75
2022/03/11 07:37:24;;;;;;;;;;;5.30;99.90;;;;;;4957969;28;20429;-76
2022/03/11 07:39:49;;;;;;;;;;;5.40;99.90;;;;;;4940040;28;19978;-75
2022/03/11 07:42:15;;;;;;;;;;;5.50;99.90;;;;;;4937204;28;19925;-75
2022/03/11 07:44:42;;;;;;;;;;;5.50;99.90;;;;;;4944074;28;20263;-75
2022/03/11 07:47:07;;;;;;;;;;;5.60;99.90;;;;;;4943810;28;19929;-74
2022/03/11 07:49:33;;;;;;;;;;;5.60;99.90;;;;;;4939043;28;20342;-74
2022/03/11 07:51:58;;;;;;;;;;;5.80;99.90;;;;;;4945615;28;19928;-75
2022/03/11 07:54:24;;;;;;;;;;;6.20;99.90;;;;;;4941163;28;20871;-75
2022/03/11 07:56:50;;;;;;;;;;;5.80;99.90;;;;;;4946645;28;19928;-75
2022/03/11 07:59:16;;;;;;;;;;;6.30;99.90;;;;;;4961750;28;19958;-76
2022/03/11 08:01:42;;;;;;;;;;;6.00;99.90;;;;;;4950710;28;19933;-75
2022/03/11 08:04:08;;;;;;;;;;;6.20;99.90;;;;;;4946707;28;20437;-76
2022/03/11 08:06:35;;;;;;;;;;;6.30;99.90;;;;;;4942482;28;20003;-74
2022/03/11 08:09:00;;;;;;;;;;;6.20;99.90;;;;;;4942383;28;19967;-75
2022/03/11 08:11:26;;;;;;;;;;;6.50;99.90;;;;;;4941723;28;19990;-76
2022/03/11 08:13:52;;;;;;;;;;;6.30;99.90;;;;;;4943754;28;20018;-75
2022/03/11 08:16:17;;;;;;;;;;;6.80;99.90;;;;;;4960217;28;20724;-75
2022/03/11 08:18:43;;;;;;;;;;;6.60;99.90;;;;;;4943001;28;20429;-76
2022/03/11 08:21:10;;;;;;;;;;;6.60;99.90;;;;;;4940856;28;19929;-75
2022/03/11 08:23:36;;;;;;;;;;;6.80;99.90;;;;;;4962429;28;20478;-75
2022/03/11 08:26:01;;;;;;;;;;;7.00;99.90;;;;;;4940374;28;20672;-75
2022/03/11 08:28:28;;;;;;;;;;;7.10;99.90;;;;;;4956426;28;19999;-76
2022/03/11 08:30:54;;;;;;;;;;;6.70;99.90;;;;;;4957345;28;19928;-76
2022/03/11 08:33:22;;;;;;;;;;;6.90;99.90;;;;;;4962516;28;20871;-76
2022/03/11 08:35:51;;;;;;;;;;;7.00;99.90;;;;;;4958105;28;19932;-75
2022/03/11 08:38:17;;;;;;;;;;;7.30;99.90;;;;;;4956510;28;19951;-75
2022/03/11 08:40:43;;;;;;;;;;;7.20;99.90;;;;;;4960882;28;19929;-75
2022/03/11 08:43:09;;;;;;;;;;;7.60;99.90;;;;;;4944968;28;19933;-75
2022/03/11 08:45:35;;;;;;;;;;;7.60;99.90;;;;;;4961954;28;19933;-76
2022/03/11 08:48:01;;;;;;;;;;;7.60;99.90;;;;;;4964405;28;20340;-74
2022/03/11 08:50:26;;;;;;;;;;;7.80;99.90;;;;;;4939567;28;19940;-75
2022/03/11 08:52:52;;;;;;;;;;;7.70;99.90;;;;;;4940962;28;19933;-75
2022/03/11 08:55:18;;;;;;;;;;;8.00;99.90;;;;;;4939469;28;20243;-75
2022/03/11 08:57:51;;;;;;;;;;;8.30;99.90;;;;;;4961506;28;20210;-75
2022/03/11 09:00:21;;;;;;;;;;;8.70;99.90;;;;;;4938566;28;19951;-75
2022/03/11 09:02:47;;;;;;;;;;;8.00;99.90;;;;;;4939244;28;19932;-75
2022/03/11 09:05:15;;;;;;;;;;;8.10;99.90;;;;;;4934465;28;20245;-75
2022/03/11 09:07:40;;;;;;;;;;;8.30;99.80;;;;;;4963802;28;20650;-75
2022/03/11 09:10:07;;;;;;;;;;;7.90;99.90;;;;;;4948854;28;19959;-77
2022/03/11 09:12:33;;;;;;;;;;;8.20;99.90;;;;;;4936506;28;20830;-76
2022/03/11 09:14:59;;;;;;;;;;;8.20;99.90;;;;;;4943970;28;19928;-76
2022/03/11 09:17:25;;;;;;;;;;;8.70;99.90;;;;;;4940121;28;20007;-75
2022/03/11 09:19:51;;;;;;;;;;;8.80;99.90;;;;;;4937143;28;19986;-75
2022/03/11 09:22:20;;;;;;;;;;;8.80;92.50;;;;;;4940090;28;19940;-74
2022/03/11 09:24:46;;;;;;;;;;;9.20;96.10;;;;;;4942586;28;20331;-74
2022/03/11 09:27:11;;;;;;;;;;;9.30;95.00;;;;;;4963655;28;20318;-76
2022/03/11 09:29:37;;;;;;;;;;;8.70;87.10;;;;;;4938544;28;20271;-75
2022/03/11 09:32:03;;;;;;;;;;;9.00;87.40;;;;;;4958416;28;19929;-75
2022/03/11 09:34:29;;;;;;;;;;;8.80;90.70;;;;;;4940494;28;20238;-76
2022/03/11 09:36:55;;;;;;;;;;;9.30;90.60;;;;;;4943074;28;20039;-75
2022/03/11 09:39:21;;;;;;;;;;;9.30;93.60;;;;;;4957865;28;19933;-76
2022/03/11 09:41:47;;;;;;;;;;;9.80;83.60;;;;;;4944780;28;19929;-75
2022/03/11 09:44:17;;;;;;;;;;;9.20;80.00;;;;;;4937243;28;20417;-76
2022/03/11 09:46:43;;;;;;;;;;;9.30;83.80;;;;;;4921620;28;20246;-74
2022/03/11 09:49:11;;;;;;;;;;;9.60;82.40;;;;;;4962495;28;19964;-74
2022/03/11 09:51:36;;;;;;;;;;;9.70;85.40;;;;;;4957699;28;20702;-75
2022/03/11 09:54:02;;;;;;;;;;;9.80;73.70;;;;;;4959490;28;19960;-75
2022/03/11 09:56:29;;;;;;;;;;;9.80;79.20;;;;;;4961019;28;20471;-75
2022/03/11 09:58:55;;;;;;;;;;;10.40;77.40;;;;;;4943313;28;20301;-75
2022/03/11 10:01:21;;;;;;;;;;;10.20;71.50;;;;;;4956922;28;19948;-75
2022/03/11 10:03:47;;;;;;;;;;;10.50;67.90;;;;;;4962923;28;20130;-75
2022/03/11 10:06:13;;;;;;;;;;;10.30;64.70;;;;;;4935102;28;19936;-74
2022/03/11 10:08:40;;;;;;;;;;;10.60;67.20;;;;;;4959723;28;19929;-74
2022/03/11 10:11:20;;;;;;;;;;;10.60;65.30;;;;;;4957400;28;19932;-75
2022/03/11 10:13:46;;;;;;;;;;;10.40;63.10;;;;;;4937966;28;19936;-75
2022/03/11 10:16:22;;;;;;;;;;;10.40;66.00;;;;;;4938507;28;19991;-75
2022/03/11 10:18:55;;;;;;;;;;;10.40;63.60;;;;;;4923324;28;20197;-76
2022/03/11 10:21:28;;;;;;;;;;;10.50;64.10;;;;;;4909534;28;19935;-75
2022/03/11 10:23:54;;;;;;;;;;;10.90;65.30;;;;;;4954595;28;20402;-75
2022/03/11 10:26:33;;;;;;;;;;;10.90;64.20;;;;;;4955836;28;19929;-75
2022/03/11 10:28:59;;;;;;;;;;;10.60;63.60;;;;;;4921985;28;19928;-75
2022/03/11 10:31:32;;;;;;;;;;;11.00;63.50;;;;;;4937399;28;19933;-75
2022/03/11 10:34:14;;;;;;;;;;;11.00;64.60;;;;;;4955687;28;19977;-75
2022/03/11 10:36:47;;;;;;;;;;;10.80;63.70;;;;;;4943574;28;19929;-74
2022/03/11 10:39:17;;;;;;;;;;;10.50;60.90;;;;;;4941523;28;19936;-74
2022/03/11 10:41:43;;;;;;;;;;;10.80;62.70;;;;;;4958688;28;20579;-76
2022/03/11 10:44:09;;;;;;;;;;;10.80;62.80;;;;;;4956957;28;20450;-74
2022/03/11 10:46:35;;;;;;;;;;;10.70;62.70;;;;;;4934206;28;20504;-74
2022/03/11 10:49:01;;;;;;;;;;;10.70;63.50;;;;;;4941058;28;19932;-74
2022/03/11 10:51:28;;;;;;;;;;;10.90;60.60;;;;;;4954649;28;19933;-75
2022/03/11 10:53:57;;;;;;;;;;;10.80;60.10;;;;;;4956325;28;20820;-74
2022/03/11 10:56:29;;;;;;;;;;;10.80;60.90;;;;;;4942550;28;20432;-74
2022/03/11 10:58:57;;;;;;;;;;;11.10;62.40;;;;;;4953178;28;19944;-75
2022/03/11 11:01:37;;;;;;;;;;;11.20;62.40;;;;;;4957078;28;19929;-74
2022/03/11 11:04:04;;;;;;;;;;;11.40;62.10;;;;;;4939203;28;20302;-75
2022/03/11 11:06:30;;;;;;;;;;;11.60;61.90;;;;;;4938337;28;19936;-74
2022/03/11 11:08:56;;;;;;;;;;;11.50;62.10;;;;;;4938333;28;20348;-75
2022/03/11 11:11:22;;;;;;;;;;;11.30;60.70;;;;;;4953326;28;20408;-75
2022/03/11 11:13:48;;;;;;;;;;;11.30;60.00;;;;;;4959955;28;20327;-74
2022/03/11 11:16:15;;;;;;;;;;;11.40;60.00;;;;;;4936137;28;19928;-74
2022/03/11 11:18:44;;;;;;;;;;;11.50;60.20;;;;;;4939384;28;20019;-74
2022/03/11 11:21:10;;;;;;;;;;;11.60;60.70;;;;;;4920585;28;19932;-74
2022/03/11 11:23:37;;;;;;;;;;;11.90;60.10;;;;;;4955437;28;20065;-73
2022/03/11 11:26:03;;;;;;;;;;;12.00;59.80;;;;;;4956152;28;19932;-74
2022/03/11 11:28:29;;;;;;;;;;;11.40;56.00;;;;;;4956748;28;19987;-74
2022/03/11 11:30:56;;;;;;;;;;;11.50;60.30;;;;;;4958695;28;20818;-73
2022/03/11 11:33:22;;;;;;;;;;;12.00;59.10;;;;;;4955452;28;20477;-74
2022/03/11 11:35:54;;;;;;;;;;;12.10;57.80;;;;;;4941567;28;19932;-74
2022/03/11 11:38:42;;;;;;;;;;;12.30;59.10;;;;;;4956598;28;19928;-73
2022/03/11 11:41:34;;;;;;;;;;;12.50;58.40;;;;;;4934856;28;20310;-74
2022/03/11 11:44:04;;;;;;;;;;;11.80;56.70;;;;;;4949882;28;20370;-73
2022/03/11 11:46:31;;;;;;;;;;;11.80;58.00;;;;;;4935974;28;20675;-72
2022/03/11 11:48:59;;;;;;;;;;;11.90;57.10;;;;;;4920541;28;20330;-73
2022/03/11 11:51:28;;;;;;;;;;;12.20;58.10;;;;;;4933581;28;20639;-73
2022/03/11 11:53:55;;;;;;;;;;;12.00;56.60;;;;;;4940338;28;20442;-73
2022/03/11 11:56:32;;;;;;;;;;;12.20;56.90;;;;;;4919772;28;20623;-73
2022/03/11 11:58:58;;;;;;;;;;;12.50;56.70;;;;;;4961462;28;20420;-74
2022/03/11 12:01:41;;;;;;;;;;;12.50;56.70;;;;;;4942006;28;20760;-74
2022/03/11 12:04:25;;;;;;;;;;;12.10;56.20;;;;;;4955524;28;19936;-73
2022/03/11 12:06:59;;;;;;;;;;;12.40;58.40;;;;;;4955890;28;20417;-73
2022/03/11 12:09:40;;;;;;;;;;;12.30;55.20;;;;;;4935580;28;20291;-73
2022/03/11 12:12:06;;;;;;;;;;;12.10;55.10;;;;;;4933490;28;19941;-74
2022/03/11 12:14:33;;;;;;;;;;;12.60;57.60;;;;;;4940520;28;20438;-73
2022/03/11 12:17:00;;;;;;;;;;;12.80;55.90;;;;;;4952928;28;19932;-73
2022/03/11 12:19:38;;;;;;;;;;;12.50;55.00;;;;;;4936244;28;20429;-73
2022/03/11 12:22:23;;;;;;;;;;;12.60;54.50;;;;;;4942320;28;20035;-73
2022/03/11 12:24:59;;;;;;;;;;;12.70;57.50;;;;;;4962114;28;19967;-73
2022/03/11 12:27:44;;;;;;;;;;;13.20;56.60;;;;;;4939014;28;20638;-73
2022/03/11 12:30:10;;;;;;;;;;;13.20;55.10;;;;;;4951524;28;19929;-73
2022/03/11 12:32:38;;;;;;;;;;;12.80;53.10;;;;;;4942770;28;20324;-74
2022/03/11 12:35:04;;;;;;;;;;;13.20;55.70;;;;;;4940417;28;19935;-73
2022/03/11 12:37:31;;;;;;;;;;;13.30;54.90;;;;;;4958744;28;19928;-74
2022/03/11 12:39:57;;;;;;;;;;;13.60;55.10;;;;;;4943320;28;20675;-75
2022/03/11 12:42:39;;;;;;;;;;;13.40;54.30;;;;;;4964458;28;19929;-73
2022/03/11 12:45:06;;;;;;;;;;;13.30;55.20;;;;;;4961312;28;20451;-73
2022/03/11 12:47:38;;;;;;;;;;;13.20;53.20;;;;;;4939846;28;19928;-74
2022/03/11 12:50:06;;;;;;;;;;;13.30;54.00;;;;;;4944417;28;19929;-74
2022/03/11 12:52:35;;;;;;;;;;;13.00;52.10;;;;;;4955893;28;20371;-74
2022/03/11 12:55:01;;;;;;;;;;;13.30;53.30;;;;;;4944721;28;19928;-73
2022/03/11 12:57:27;;;;;;;;;;;13.30;54.20;;;;;;4933853;28;20287;-74
2022/03/11 12:59:53;;;;;;;;;;;13.30;53.70;;;;;;4930444;28;20320;-72
2022/03/11 13:02:18;;;;;;;;;;;13.70;53.90;;;;;;4938507;28;20345;-74
2022/03/11 13:04:44;;;;;;;;;;;13.00;50.90;;;;;;4943619;28;19928;-73
2022/03/11 13:07:14;;;;;;;;;;;12.90;51.40;;;;;;4929399;28;19986;-72
2022/03/11 13:09:39;;;;;;;;;;;13.10;54.40;;;;;;4919244;28;20785;-74
2022/03/11 13:12:24;;;;;;;;;;;13.00;51.70;;;;;;4952617;28;19935;-73
2022/03/11 13:15:08;;;;;;;;;;;13.40;53.60;;;;;;4935258;28;21197;-74
2022/03/11 13:17:40;;;;;;;;;;;13.10;52.10;;;;;;4936160;28;20372;-74
2022/03/11 13:20:07;;;;;;;;;;;13.60;54.70;;;;;;4939758;28;20563;-74
2022/03/11 13:22:32;;;;;;;;;;;13.60;53.50;;;;;;4958870;28;19933;-74
2022/03/11 13:25:05;;;;;;;;;;;13.70;51.70;;;;;;4937298;28;19933;-73
2022/03/11 13:27:37;;;;;;;;;;;13.80;52.70;;;;;;4953522;28;20415;-74
2022/03/11 13:30:04;;;;;;;;;;;13.60;50.80;;;;;;4962044;28;20333;-73
2022/03/11 13:32:29;;;;;;;;;;;13.70;52.00;;;;;;4957422;28;19935;-74
2022/03/11 13:34:55;;;;;;;;;;;13.40;51.00;;;;;;4917708;28;20419;-73
2022/03/11 13:37:22;;;;;;;;;;;13.60;51.00;;;;;;4914335;28;19929;-73
2022/03/11 13:40:05;;;;;;;;;;;13.80;51.90;;;;;;4957986;28;19929;-74
2022/03/11 13:42:31;;;;;;;;;;;13.80;52.00;;;;;;4957187;28;19935;-73
2022/03/11 13:45:04;;;;;;;;;;;13.40;50.40;;;;;;4942985;28;20346;-74
2022/03/11 13:47:30;;;;;;;;;;;13.60;53.20;;;;;;4955473;28;19975;-74
2022/03/11 13:50:04;;;;;;;;;;;13.80;51.20;;;;;;4937530;28;19932;-73
2022/03/11 13:52:39;;;;;;;;;;;14.00;51.70;;;;;;4958056;28;19929;-73
2022/03/11 13:55:06;;;;;;;;;;;13.70;50.00;;;;;;4938984;28;20287;-73
2022/03/11 13:57:35;;;;;;;;;;;13.60;51.60;;;;;;4938828;28;20513;-74
2022/03/11 14:00:33;;;;;;;;;;;13.50;51.00;;;;;;4965632;28;19928;-74
2022/03/11 14:03:00;;;;;;;;;;;13.60;51.10;;;;;;4910558;28;19991;-73
2022/03/11 14:05:27;;;;;;;;;;;13.40;51.00;;;;;;4961731;28;20274;-74
2022/03/11 14:08:03;;;;;;;;;;;13.40;50.10;;;;;;4965289;28;20011;-74
2022/03/11 14:10:34;;;;;;;;;;;13.40;50.30;;;;;;4953681;28;19951;-73
2022/03/11 14:12:59;;;;;;;;;;;13.50;50.80;;;;;;4953904;28;19958;-74
2022/03/11 14:15:30;;;;;;;;;;;13.40;50.70;;;;;;4939038;28;19929;-73
2022/03/11 14:17:55;;;;;;;;;;;13.30;50.10;;;;;;4955874;28;19929;-74
2022/03/11 14:20:21;;;;;;;;;;;13.30;48.80;;;;;;4938351;28;20345;-73
2022/03/11 14:22:47;;;;;;;;;;;13.40;50.60;;;;;;4922205;28;19971;-73
2022/03/11 14:25:14;;;;;;;;;;;13.50;50.70;;;;;;4932425;28;20819;-74
2022/03/11 14:27:40;;;;;;;;;;;13.80;50.70;;;;;;4951398;28;19939;-73